sensor_id;sensor_type;location;lat;lon;timestamp;pressure;altitude;pressure_sealevel;temperature;humidity
50859;BME280;36826;47.514;19.056;2023-07-16T00:00:50;99998.03;;;33.65;36.17
50859;BME280;36826;47.514;19.056;2023-07-16T00:03:16;99997.03;;;33.56;36.18
50859;BME280;36826;47.514;19.056;2023-07-16T00:05:41;100001.09;;;33.64;36.26
50859;BME280;36826;47.514;19.056;2023-07-16T00:08:06;99992.06;;;34.02;35.53
50859;BME280;36826;47.514;19.056;2023-07-16T00:10:38;99999.59;;;34.97;34.38
50859;BME280;36826;47.514;19.056;2023-07-16T00:13:04;99991.38;;;34.86;34.57
50859;BME280;36826;47.514;19.056;2023-07-16T00:15:30;99994.38;;;34.90;34.74
50859;BME280;36826;47.514;19.056;2023-07-16T00:17:55;99994.00;;;34.97;34.69
50859;BME280;36826;47.514;19.056;2023-07-16T00:20:21;99983.81;;;34.73;34.76
50859;BME280;36826;47.514;19.056;2023-07-16T00:22:49;99994.50;;;34.66;34.72
50859;BME280;36826;47.514;19.056;2023-07-16T00:25:15;100006.84;;;34.60;34.86
50859;BME280;36826;47.514;19.056;2023-07-16T00:27:40;99998.66;;;34.49;35.06
50859;BME280;36826;47.514;19.056;2023-07-16T00:30:07;99997.19;;;34.71;34.64
50859;BME280;36826;47.514;19.056;2023-07-16T00:32:33;100003.81;;;34.37;35.21
50859;BME280;36826;47.514;19.056;2023-07-16T00:34:58;99995.41;;;34.42;35.06
50859;BME280;36826;47.514;19.056;2023-07-16T00:37:24;99994.72;;;34.31;35.16
50859;BME280;36826;47.514;19.056;2023-07-16T00:39:49;99991.56;;;34.38;35.08
50859;BME280;36826;47.514;19.056;2023-07-16T00:42:15;99987.97;;;34.56;34.60
50859;BME280;36826;47.514;19.056;2023-07-16T00:44:41;99991.63;;;34.33;35.12
50859;BME280;36826;47.514;19.056;2023-07-16T00:47:06;99981.84;;;34.35;35.00
50859;BME280;36826;47.514;19.056;2023-07-16T00:49:32;99987.72;;;34.34;34.94
50859;BME280;36826;47.514;19.056;2023-07-16T00:51:58;99990.13;;;34.21;35.18
50859;BME280;36826;47.514;19.056;2023-07-16T00:54:24;99993.28;;;34.15;35.38
50859;BME280;36826;47.514;19.056;2023-07-16T00:56:51;99984.16;;;33.41;36.32
50859;BME280;36826;47.514;19.056;2023-07-16T00:59:17;99981.16;;;33.32;37.04
50859;BME280;36826;47.514;19.056;2023-07-16T01:01:42;99976.22;;;32.60;38.09
50859;BME280;36826;47.514;19.056;2023-07-16T01:04:08;99970.34;;;32.22;38.73
50859;BME280;36826;47.514;19.056;2023-07-16T01:06:40;99966.25;;;32.59;38.41
50859;BME280;36826;47.514;19.056;2023-07-16T01:09:17;99977.63;;;32.97;37.40
50859;BME280;36826;47.514;19.056;2023-07-16T01:11:43;99973.84;;;31.93;39.31
50859;BME280;36826;47.514;19.056;2023-07-16T01:14:10;99970.34;;;32.22;38.98
50859;BME280;36826;47.514;19.056;2023-07-16T01:16:36;99970.25;;;32.42;38.70
50859;BME280;36826;47.514;19.056;2023-07-16T01:19:02;99969.44;;;33.41;36.62
50859;BME280;36826;47.514;19.056;2023-07-16T01:21:32;99969.97;;;33.43;36.52
50859;BME280;36826;47.514;19.056;2023-07-16T01:24:53;99958.97;;;32.68;37.57
50859;BME280;36826;47.514;19.056;2023-07-16T01:29:50;99970.91;;;33.57;36.25
50859;BME280;36826;47.514;19.056;2023-07-16T01:32:18;99973.66;;;33.62;36.39
50859;BME280;36826;47.514;19.056;2023-07-16T01:34:44;99965.66;;;33.26;37.10
50859;BME280;36826;47.514;19.056;2023-07-16T01:37:10;99966.84;;;33.49;36.31
50859;BME280;36826;47.514;19.056;2023-07-16T01:39:36;99969.44;;;33.41;36.52
50859;BME280;36826;47.514;19.056;2023-07-16T01:42:02;99960.72;;;33.23;37.17
50859;BME280;36826;47.514;19.056;2023-07-16T01:44:28;99964.78;;;33.07;37.19
50859;BME280;36826;47.514;19.056;2023-07-16T01:47:13;99971.66;;;33.39;36.88
50859;BME280;36826;47.514;19.056;2023-07-16T01:49:40;99973.94;;;33.31;36.98
50859;BME280;36826;47.514;19.056;2023-07-16T01:52:09;99964.00;;;33.25;36.94
50859;BME280;36826;47.514;19.056;2023-07-16T01:54:36;99972.22;;;33.41;36.48
50859;BME280;36826;47.514;19.056;2023-07-16T01:57:01;99965.94;;;32.66;37.84
50859;BME280;36826;47.514;19.056;2023-07-16T01:59:27;99970.91;;;33.03;37.56
50859;BME280;36826;47.514;19.056;2023-07-16T02:01:52;99962.34;;;33.00;37.07
50859;BME280;36826;47.514;19.056;2023-07-16T02:04:18;99969.97;;;33.43;36.20
50859;BME280;36826;47.514;19.056;2023-07-16T02:06:43;99970.88;;;33.33;36.53
50859;BME280;36826;47.514;19.056;2023-07-16T02:09:10;99967.72;;;32.86;37.61
50859;BME280;36826;47.514;19.056;2023-07-16T02:11:35;99963.81;;;32.07;38.57
50859;BME280;36826;47.514;19.056;2023-07-16T02:14:01;99964.34;;;32.94;37.39
50859;BME280;36826;47.514;19.056;2023-07-16T02:16:27;99959.66;;;33.19;36.69
50859;BME280;36826;47.514;19.056;2023-07-16T02:18:52;99967.00;;;33.04;36.59
50859;BME280;36826;47.514;19.056;2023-07-16T02:21:18;99960.28;;;33.40;36.24
50859;BME280;36826;47.514;19.056;2023-07-16T02:23:43;99957.22;;;33.42;35.99
50859;BME280;36826;47.514;19.056;2023-07-16T02:26:09;99949.56;;;31.59;38.96
50859;BME280;36826;47.514;19.056;2023-07-16T02:28:36;99945.53;;;32.06;38.26
50859;BME280;36826;47.514;19.056;2023-07-16T02:31:02;99951.59;;;32.93;36.73
50859;BME280;36826;47.514;19.056;2023-07-16T02:33:28;99954.66;;;32.92;36.75
50859;BME280;36826;47.514;19.056;2023-07-16T02:35:53;99947.00;;;32.38;38.04
50859;BME280;36826;47.514;19.056;2023-07-16T02:38:19;99950.66;;;31.68;39.25
50859;BME280;36826;47.514;19.056;2023-07-16T02:40:45;99964.00;;;33.25;36.22
50859;BME280;36826;47.514;19.056;2023-07-16T02:43:12;99967.56;;;33.01;36.68
50859;BME280;36826;47.514;19.056;2023-07-16T02:45:38;99957.53;;;33.11;36.37
50859;BME280;36826;47.514;19.056;2023-07-16T02:48:04;99956.97;;;33.38;36.16
50859;BME280;36826;47.514;19.056;2023-07-16T02:50:35;99955.44;;;33.75;35.74
50859;BME280;36826;47.514;19.056;2023-07-16T02:53:01;99960.28;;;33.64;35.77
50859;BME280;36826;47.514;19.056;2023-07-16T02:55:27;99967.88;;;33.29;36.45
50859;BME280;36826;47.514;19.056;2023-07-16T02:57:52;99966.03;;;33.49;36.22
50859;BME280;36826;47.514;19.056;2023-07-16T03:00:18;99961.00;;;31.36;40.07
50859;BME280;36826;47.514;19.056;2023-07-16T03:02:45;99958.28;;;31.97;38.79
50859;BME280;36826;47.514;19.056;2023-07-16T03:05:10;99954.75;;;32.36;38.15
50859;BME280;36826;47.514;19.056;2023-07-16T03:07:36;99959.25;;;33.01;37.29
50859;BME280;36826;47.514;19.056;2023-07-16T03:10:01;99968.66;;;33.05;36.92
50859;BME280;36826;47.514;19.056;2023-07-16T03:12:27;99969.56;;;33.55;35.90
50859;BME280;36826;47.514;19.056;2023-07-16T03:14:53;99978.25;;;33.48;36.11
50859;BME280;36826;47.514;19.056;2023-07-16T03:17:22;99978.53;;;33.17;36.50
50859;BME280;36826;47.514;19.056;2023-07-16T03:19:48;99975.22;;;33.69;35.70
50859;BME280;36826;47.514;19.056;2023-07-16T03:22:14;99975.63;;;33.81;35.45
50859;BME280;36826;47.514;19.056;2023-07-16T03:24:39;99972.53;;;33.34;36.11
50859;BME280;36826;47.514;19.056;2023-07-16T03:27:06;99977.59;;;34.43;34.55
50859;BME280;36826;47.514;19.056;2023-07-16T03:29:32;99983.50;;;34.17;34.60
50859;BME280;36826;47.514;19.056;2023-07-16T03:31:58;99980.56;;;35.04;32.98
50859;BME280;36826;47.514;19.056;2023-07-16T03:34:24;99981.50;;;36.25;31.11
50859;BME280;36826;47.514;19.056;2023-07-16T03:36:49;99983.38;;;36.16;31.58
50859;BME280;36826;47.514;19.056;2023-07-16T03:39:15;99991.13;;;36.05;31.39
50859;BME280;36826;47.514;19.056;2023-07-16T03:41:40;99991.72;;;36.66;30.53
50859;BME280;36826;47.514;19.056;2023-07-16T03:44:06;99987.16;;;36.93;29.66
50859;BME280;36826;47.514;19.056;2023-07-16T03:46:31;99988.97;;;36.75;29.95
50859;BME280;36826;47.514;19.056;2023-07-16T03:48:57;99990.34;;;37.72;28.46
50859;BME280;36826;47.514;19.056;2023-07-16T03:51:22;99997.66;;;35.11;31.97
50859;BME280;36826;47.514;19.056;2023-07-16T03:53:48;100011.22;;;34.03;33.82
50859;BME280;36826;47.514;19.056;2023-07-16T03:56:13;100003.72;;;34.23;33.61
50859;BME280;36826;47.514;19.056;2023-07-16T03:58:39;100000.63;;;36.18;30.66
50859;BME280;36826;47.514;19.056;2023-07-16T04:01:05;99997.78;;;36.46;29.85
50859;BME280;36826;47.514;19.056;2023-07-16T04:03:30;100002.91;;;34.22;33.06
50859;BME280;36826;47.514;19.056;2023-07-16T04:06:07;100011.66;;;36.96;29.20
50859;BME280;36826;47.514;19.056;2023-07-16T04:08:34;100009.00;;;37.23;28.96
50859;BME280;36826;47.514;19.056;2023-07-16T04:11:01;100010.16;;;37.94;27.98
50859;BME280;36826;47.514;19.056;2023-07-16T04:13:27;100010.78;;;37.90;27.97
50859;BME280;36826;47.514;19.056;2023-07-16T04:15:53;100008.25;;;38.64;26.99
50859;BME280;36826;47.514;19.056;2023-07-16T04:18:21;100010.59;;;40.14;25.28
50859;BME280;36826;47.514;19.056;2023-07-16T04:20:46;100011.38;;;40.65;24.32
50859;BME280;36826;47.514;19.056;2023-07-16T04:23:12;100015.88;;;41.96;22.86
50859;BME280;36826;47.514;19.056;2023-07-16T04:25:37;100015.63;;;42.13;22.70
50859;BME280;36826;47.514;19.056;2023-07-16T04:28:03;100022.13;;;42.42;22.57
50859;BME280;36826;47.514;19.056;2023-07-16T04:30:29;100014.78;;;42.66;21.91
50859;BME280;36826;47.514;19.056;2023-07-16T04:32:55;100011.00;;;42.46;22.17
50859;BME280;36826;47.514;19.056;2023-07-16T04:35:20;100016.03;;;42.81;21.95
50859;BME280;36826;47.514;19.056;2023-07-16T04:37:46;100016.59;;;43.63;21.47
50859;BME280;36826;47.514;19.056;2023-07-16T04:40:12;100018.66;;;43.34;21.83
50859;BME280;36826;47.514;19.056;2023-07-16T04:42:37;100022.78;;;41.98;22.91
50859;BME280;36826;47.514;19.056;2023-07-16T04:45:04;100024.97;;;42.99;22.00
50859;BME280;36826;47.514;19.056;2023-07-16T04:47:30;100022.84;;;42.68;22.06
50859;BME280;36826;47.514;19.056;2023-07-16T04:49:57;100028.03;;;42.66;22.35
50859;BME280;36826;47.514;19.056;2023-07-16T04:52:22;100018.75;;;42.37;22.62
50859;BME280;36826;47.514;19.056;2023-07-16T04:54:48;100030.03;;;42.93;21.61
50859;BME280;36826;47.514;19.056;2023-07-16T04:57:13;100031.44;;;44.87;20.17
50859;BME280;36826;47.514;19.056;2023-07-16T04:59:39;100034.56;;;45.71;18.97
50859;BME280;36826;47.514;19.056;2023-07-16T05:02:05;100034.25;;;46.03;17.97
50859;BME280;36826;47.514;19.056;2023-07-16T05:04:33;100033.69;;;46.21;18.39
50859;BME280;36826;47.514;19.056;2023-07-16T05:07:01;100032.06;;;44.41;19.66
50859;BME280;36826;47.514;19.056;2023-07-16T05:09:27;100036.38;;;46.10;18.19
50859;BME280;36826;47.514;19.056;2023-07-16T05:11:52;100045.00;;;46.21;18.05
50859;BME280;36826;47.514;19.056;2023-07-16T05:14:18;100055.44;;;47.53;16.90
50859;BME280;36826;47.514;19.056;2023-07-16T05:16:43;100046.38;;;45.54;18.13
50859;BME280;36826;47.514;19.056;2023-07-16T05:19:09;100049.28;;;44.36;19.75
50859;BME280;36826;47.514;19.056;2023-07-16T05:21:34;100047.91;;;42.32;21.57
50859;BME280;36826;47.514;19.056;2023-07-16T05:24:01;100044.84;;;44.74;19.53
50859;BME280;36826;47.514;19.056;2023-07-16T05:26:27;100041.59;;;45.58;19.09
50859;BME280;36826;47.514;19.056;2023-07-16T05:28:52;100032.34;;;44.16;20.13
50859;BME280;36826;47.514;19.056;2023-07-16T05:31:18;100035.97;;;44.52;19.50
50859;BME280;36826;47.514;19.056;2023-07-16T05:33:43;100034.94;;;44.61;19.17
50859;BME280;36826;47.514;19.056;2023-07-16T05:36:09;100034.72;;;44.14;19.94
50859;BME280;36826;47.514;19.056;2023-07-16T05:38:34;100038.34;;;46.06;18.07
50859;BME280;36826;47.514;19.056;2023-07-16T05:41:03;100046.53;;;46.76;17.64
50859;BME280;36826;47.514;19.056;2023-07-16T05:43:30;100049.63;;;48.50;16.23
50859;BME280;36826;47.514;19.056;2023-07-16T05:45:56;100038.50;;;49.63;15.45
50859;BME280;36826;47.514;19.056;2023-07-16T05:48:22;100035.66;;;49.88;14.88
50859;BME280;36826;47.514;19.056;2023-07-16T05:50:47;100038.28;;;48.54;15.99
50859;BME280;36826;47.514;19.056;2023-07-16T05:53:13;100039.59;;;48.82;15.82
50859;BME280;36826;47.514;19.056;2023-07-16T05:55:41;100034.53;;;48.32;16.06
50859;BME280;36826;47.514;19.056;2023-07-16T05:58:07;100036.81;;;50.12;14.91
50859;BME280;36826;47.514;19.056;2023-07-16T06:00:34;100036.84;;;50.01;14.76
50859;BME280;36826;47.514;19.056;2023-07-16T06:03:00;100043.50;;;50.69;14.43
50859;BME280;36826;47.514;19.056;2023-07-16T06:05:26;100057.50;;;51.20;13.71
50859;BME280;36826;47.514;19.056;2023-07-16T06:07:52;100059.28;;;51.48;13.62
50859;BME280;36826;47.514;19.056;2023-07-16T06:10:17;100052.31;;;51.56;13.56
50859;BME280;36826;47.514;19.056;2023-07-16T06:12:43;100043.16;;;50.56;13.86
50859;BME280;36826;47.514;19.056;2023-07-16T06:15:09;100052.13;;;52.16;13.04
50859;BME280;36826;47.514;19.056;2023-07-16T06:17:34;100057.50;;;52.11;12.74
50859;BME280;36826;47.514;19.056;2023-07-16T06:20:00;100052.63;;;53.04;12.74
50859;BME280;36826;47.514;19.056;2023-07-16T06:22:25;100053.97;;;51.54;13.40
50859;BME280;36826;47.514;19.056;2023-07-16T06:24:51;100064.00;;;53.35;11.80
50859;BME280;36826;47.514;19.056;2023-07-16T06:27:16;100057.66;;;53.72;11.65
50859;BME280;36826;47.514;19.056;2023-07-16T06:29:41;100061.53;;;53.61;11.79
50859;BME280;36826;47.514;19.056;2023-07-16T06:32:07;100054.94;;;52.86;12.26
50859;BME280;36826;47.514;19.056;2023-07-16T06:34:34;100057.34;;;53.42;12.30
50859;BME280;36826;47.514;19.056;2023-07-16T06:37:00;100063.44;;;51.85;13.18
50859;BME280;36826;47.514;19.056;2023-07-16T06:39:25;100060.38;;;53.31;12.37
50859;BME280;36826;47.514;19.056;2023-07-16T06:41:51;100057.91;;;53.33;11.70
50859;BME280;36826;47.514;19.056;2023-07-16T06:44:16;100052.69;;;54.40;11.78
50859;BME280;36826;47.514;19.056;2023-07-16T06:46:42;100058.59;;;53.14;12.39
50859;BME280;36826;47.514;19.056;2023-07-16T06:49:07;100058.03;;;54.18;11.28
50859;BME280;36826;47.514;19.056;2023-07-16T06:51:33;100057.00;;;53.64;12.34
50859;BME280;36826;47.514;19.056;2023-07-16T06:53:59;100054.81;;;53.24;12.61
50859;BME280;36826;47.514;19.056;2023-07-16T06:56:25;100049.75;;;53.04;12.83
50859;BME280;36826;47.514;19.056;2023-07-16T06:58:50;100055.47;;;54.23;11.91
50859;BME280;36826;47.514;19.056;2023-07-16T07:01:16;100054.50;;;54.50;11.26
50859;BME280;36826;47.514;19.056;2023-07-16T07:03:41;100044.78;;;54.44;11.07
50859;BME280;36826;47.514;19.056;2023-07-16T07:06:08;100044.75;;;54.27;11.22
50859;BME280;36826;47.514;19.056;2023-07-16T07:08:36;100037.53;;;53.99;11.78
50859;BME280;36826;47.514;19.056;2023-07-16T07:11:02;100041.38;;;54.89;11.29
50859;BME280;36826;47.514;19.056;2023-07-16T07:13:27;100042.91;;;53.73;11.52
50859;BME280;36826;47.514;19.056;2023-07-16T07:15:55;100038.63;;;53.37;12.10
50859;BME280;36826;47.514;19.056;2023-07-16T07:18:20;100044.41;;;54.99;11.00
50859;BME280;36826;47.514;19.056;2023-07-16T07:20:46;100045.84;;;54.34;11.36
50859;BME280;36826;47.514;19.056;2023-07-16T07:23:13;100049.03;;;54.76;11.58
50859;BME280;36826;47.514;19.056;2023-07-16T07:25:38;100044.78;;;55.17;11.04
50859;BME280;36826;47.514;19.056;2023-07-16T07:28:04;100052.28;;;56.49;10.29
50859;BME280;36826;47.514;19.056;2023-07-16T07:30:34;100042.13;;;56.19;10.61
50859;BME280;36826;47.514;19.056;2023-07-16T07:32:59;100045.41;;;56.47;9.94
50859;BME280;36826;47.514;19.056;2023-07-16T07:35:25;100045.69;;;55.93;10.75
50859;BME280;36826;47.514;19.056;2023-07-16T07:37:50;100048.34;;;55.71;10.70
50859;BME280;36826;47.514;19.056;2023-07-16T07:40:16;100039.50;;;55.95;10.49
50859;BME280;36826;47.514;19.056;2023-07-16T07:42:41;100040.50;;;55.26;11.11
50859;BME280;36826;47.514;19.056;2023-07-16T07:45:07;100030.22;;;56.04;10.52
50859;BME280;36826;47.514;19.056;2023-07-16T07:47:33;100030.41;;;55.67;11.08
50859;BME280;36826;47.514;19.056;2023-07-16T07:49:58;100037.38;;;55.83;10.72
50859;BME280;36826;47.514;19.056;2023-07-16T07:52:27;100034.81;;;56.01;10.61
50859;BME280;36826;47.514;19.056;2023-07-16T07:54:52;100036.47;;;57.22;10.18
50859;BME280;36826;47.514;19.056;2023-07-16T07:57:19;100029.91;;;57.92;9.36
50859;BME280;36826;47.514;19.056;2023-07-16T07:59:45;100022.97;;;55.99;10.37
50859;BME280;36826;47.514;19.056;2023-07-16T08:02:11;100020.66;;;56.23;10.29
50859;BME280;36826;47.514;19.056;2023-07-16T08:04:36;100030.88;;;56.37;9.92
50859;BME280;36826;47.514;19.056;2023-07-16T08:07:02;100016.19;;;57.26;9.66
50859;BME280;36826;47.514;19.056;2023-07-16T08:09:28;100024.66;;;58.44;9.65
50859;BME280;36826;47.514;19.056;2023-07-16T08:11:54;100029.34;;;56.88;10.27
50859;BME280;36826;47.514;19.056;2023-07-16T08:14:19;100021.72;;;57.20;9.74
50859;BME280;36826;47.514;19.056;2023-07-16T08:16:45;100028.38;;;58.22;9.20
50859;BME280;36826;47.514;19.056;2023-07-16T08:19:12;100028.44;;;57.87;9.37
50859;BME280;36826;47.514;19.056;2023-07-16T08:21:39;100022.31;;;58.93;8.67
50859;BME280;36826;47.514;19.056;2023-07-16T08:24:05;100029.84;;;58.59;9.45
50859;BME280;36826;47.514;19.056;2023-07-16T08:26:31;100030.84;;;58.11;9.68
50859;BME280;36826;47.514;19.056;2023-07-16T08:28:57;100025.63;;;59.32;8.50
50859;BME280;36826;47.514;19.056;2023-07-16T08:31:22;100017.13;;;59.94;8.11
50859;BME280;36826;47.514;19.056;2023-07-16T08:33:48;100026.13;;;59.68;8.20
50859;BME280;36826;47.514;19.056;2023-07-16T08:36:13;100022.91;;;58.78;8.71
50859;BME280;36826;47.514;19.056;2023-07-16T08:38:39;100021.50;;;58.51;8.45
50859;BME280;36826;47.514;19.056;2023-07-16T08:41:05;100017.84;;;58.60;8.40
50859;BME280;36826;47.514;19.056;2023-07-16T08:43:32;100020.84;;;59.94;8.30
50859;BME280;36826;47.514;19.056;2023-07-16T08:46:00;100013.44;;;59.75;7.86
50859;BME280;36826;47.514;19.056;2023-07-16T08:48:28;100005.16;;;58.04;8.32
50859;BME280;36826;47.514;19.056;2023-07-16T08:50:55;100011.47;;;59.25;7.89
50859;BME280;36826;47.514;19.056;2023-07-16T08:53:23;100012.78;;;59.89;7.64
50859;BME280;36826;47.514;19.056;2023-07-16T08:55:49;100008.13;;;59.92;7.88
50859;BME280;36826;47.514;19.056;2023-07-16T08:58:15;100021.59;;;60.66;7.66
50859;BME280;36826;47.514;19.056;2023-07-16T09:00:45;100013.00;;;53.30;11.37
50859;BME280;36826;47.514;19.056;2023-07-16T09:03:12;100009.13;;;52.62;12.07
50859;BME280;36826;47.514;19.056;2023-07-16T09:05:39;100002.06;;;53.21;12.05
50859;BME280;36826;47.514;19.056;2023-07-16T09:08:06;100008.53;;;54.74;11.03
50859;BME280;36826;47.514;19.056;2023-07-16T09:10:31;100013.44;;;54.37;11.21
50859;BME280;36826;47.514;19.056;2023-07-16T09:12:58;100007.19;;;54.79;11.42
50859;BME280;36826;47.514;19.056;2023-07-16T09:15:24;100014.25;;;56.71;10.08
50859;BME280;36826;47.514;19.056;2023-07-16T09:17:50;100021.25;;;52.70;12.18
50859;BME280;36826;47.514;19.056;2023-07-16T09:20:17;100010.06;;;52.21;13.08
50859;BME280;36826;47.514;19.056;2023-07-16T09:22:44;100015.22;;;52.33;12.93
50859;BME280;36826;47.514;19.056;2023-07-16T09:25:10;100020.59;;;49.58;14.99
50859;BME280;36826;47.514;19.056;2023-07-16T09:27:36;100013.03;;;52.10;13.42
50859;BME280;36826;47.514;19.056;2023-07-16T09:30:06;100001.34;;;54.82;11.50
50859;BME280;36826;47.514;19.056;2023-07-16T09:32:37;100011.16;;;54.08;11.92
50859;BME280;36826;47.514;19.056;2023-07-16T09:35:15;100000.25;;;55.13;11.08
50859;BME280;36826;47.514;19.056;2023-07-16T09:37:42;100012.59;;;56.18;10.45
50859;BME280;36826;47.514;19.056;2023-07-16T09:40:11;100006.44;;;55.28;10.88
50859;BME280;36826;47.514;19.056;2023-07-16T09:42:38;99994.31;;;55.37;10.88
50859;BME280;36826;47.514;19.056;2023-07-16T09:45:12;100000.47;;;50.49;14.10
50859;BME280;36826;47.514;19.056;2023-07-16T09:47:39;100015.25;;;50.96;13.87
50859;BME280;36826;47.514;19.056;2023-07-16T09:50:05;100007.59;;;49.68;15.27
50859;BME280;36826;47.514;19.056;2023-07-16T09:52:31;100004.91;;;52.08;13.60
50859;BME280;36826;47.514;19.056;2023-07-16T09:55:03;99999.41;;;50.14;14.34
50859;BME280;36826;47.514;19.056;2023-07-16T09:57:34;99989.72;;;49.60;15.37
50859;BME280;36826;47.514;19.056;2023-07-16T10:00:04;99998.78;;;51.22;13.94
50859;BME280;36826;47.514;19.056;2023-07-16T10:02:34;99990.25;;;51.68;13.76
50859;BME280;36826;47.514;19.056;2023-07-16T10:05:14;99995.03;;;49.77;15.22
50859;BME280;36826;47.514;19.056;2023-07-16T10:07:40;99989.66;;;52.22;13.39
50859;BME280;36826;47.514;19.056;2023-07-16T10:10:11;99999.88;;;49.76;14.66
50859;BME280;36826;47.514;19.056;2023-07-16T10:12:37;99998.31;;;50.68;14.37
50859;BME280;36826;47.514;19.056;2023-07-16T10:15:04;99992.56;;;48.99;15.57
50859;BME280;36826;47.514;19.056;2023-07-16T10:17:31;99988.47;;;48.93;15.86
50859;BME280;36826;47.514;19.056;2023-07-16T10:20:08;99987.66;;;48.81;16.07
50859;BME280;36826;47.514;19.056;2023-07-16T10:22:54;99979.63;;;50.63;14.55
50859;BME280;36826;47.514;19.056;2023-07-16T10:27:47;99972.56;;;50.15;15.05
50859;BME280;36826;47.514;19.056;2023-07-16T10:30:13;99977.41;;;48.51;16.22
50859;BME280;36826;47.514;19.056;2023-07-16T10:32:39;99981.81;;;48.34;16.28
50859;BME280;36826;47.514;19.056;2023-07-16T10:35:06;99982.56;;;48.20;16.48
50859;BME280;36826;47.514;19.056;2023-07-16T10:37:34;99980.75;;;48.90;15.92
50859;BME280;36826;47.514;19.056;2023-07-16T10:40:01;99980.53;;;50.42;14.68
50859;BME280;36826;47.514;19.056;2023-07-16T10:42:27;99975.38;;;50.93;14.09
50859;BME280;36826;47.514;19.056;2023-07-16T10:44:58;99979.41;;;51.48;13.78
50859;BME280;36826;47.514;19.056;2023-07-16T10:47:29;99974.78;;;50.60;14.39
50859;BME280;36826;47.514;19.056;2023-07-16T10:49:55;99974.44;;;46.35;17.45
50859;BME280;36826;47.514;19.056;2023-07-16T10:52:22;99963.13;;;47.59;16.61
50859;BME280;36826;47.514;19.056;2023-07-16T10:54:48;99961.78;;;47.98;15.98
50859;BME280;36826;47.514;19.056;2023-07-16T10:57:20;99953.84;;;48.40;15.73
50859;BME280;36826;47.514;19.056;2023-07-16T10:59:46;99960.81;;;46.79;17.07
50859;BME280;36826;47.514;19.056;2023-07-16T11:02:14;99965.06;;;46.31;17.14
50859;BME280;36826;47.514;19.056;2023-07-16T11:04:42;99967.75;;;44.70;18.70
50859;BME280;36826;47.514;19.056;2023-07-16T11:07:08;99959.06;;;45.48;17.95
50859;BME280;36826;47.514;19.056;2023-07-16T11:09:44;99956.06;;;46.90;16.87
50859;BME280;36826;47.514;19.056;2023-07-16T11:12:12;99956.84;;;46.19;17.38
50859;BME280;36826;47.514;19.056;2023-07-16T11:14:38;99955.16;;;46.14;17.36
50859;BME280;36826;47.514;19.056;2023-07-16T11:17:08;99959.22;;;47.82;15.88
50859;BME280;36826;47.514;19.056;2023-07-16T11:19:35;99951.28;;;46.60;16.81
50859;BME280;36826;47.514;19.056;2023-07-16T11:22:02;99951.72;;;47.04;16.08
50859;BME280;36826;47.514;19.056;2023-07-16T11:24:28;99946.59;;;48.64;15.05
50859;BME280;36826;47.514;19.056;2023-07-16T11:26:54;99948.28;;;45.31;17.46
50859;BME280;36826;47.514;19.056;2023-07-16T11:29:22;99944.19;;;44.03;18.77
50859;BME280;36826;47.514;19.056;2023-07-16T11:31:51;99947.44;;;45.07;18.14
50859;BME280;36826;47.514;19.056;2023-07-16T11:34:20;99952.41;;;45.91;17.37
50859;BME280;36826;47.514;19.056;2023-07-16T11:36:47;99951.22;;;46.94;16.68
50859;BME280;36826;47.514;19.056;2023-07-16T11:39:12;99953.13;;;44.25;18.95
50859;BME280;36826;47.514;19.056;2023-07-16T11:41:38;99946.66;;;46.45;17.13
50859;BME280;36826;47.514;19.056;2023-07-16T11:44:03;99943.63;;;46.64;16.86
50859;BME280;36826;47.514;19.056;2023-07-16T11:46:33;99952.81;;;46.88;16.43
50859;BME280;36826;47.514;19.056;2023-07-16T11:49:00;99950.94;;;46.65;16.72
50859;BME280;36826;47.514;19.056;2023-07-16T11:51:26;99942.31;;;43.91;19.29
50859;BME280;36826;47.514;19.056;2023-07-16T11:53:53;99947.09;;;44.26;18.78
50859;BME280;36826;47.514;19.056;2023-07-16T11:56:19;99954.44;;;45.63;17.89
50859;BME280;36826;47.514;19.056;2023-07-16T11:58:45;99950.59;;;45.75;17.91
50859;BME280;36826;47.514;19.056;2023-07-16T12:01:11;99934.59;;;45.87;17.26
50859;BME280;36826;47.514;19.056;2023-07-16T12:03:36;99939.94;;;46.60;17.14
50859;BME280;36826;47.514;19.056;2023-07-16T12:06:02;99946.66;;;45.84;17.81
50859;BME280;36826;47.514;19.056;2023-07-16T12:08:27;99941.13;;;45.37;18.40
50859;BME280;36826;47.514;19.056;2023-07-16T12:10:54;99937.19;;;45.45;18.19
50859;BME280;36826;47.514;19.056;2023-07-16T12:13:20;99936.53;;;45.56;17.90
50859;BME280;36826;47.514;19.056;2023-07-16T12:15:45;99952.91;;;43.62;19.79
50859;BME280;36826;47.514;19.056;2023-07-16T12:18:11;99946.06;;;43.79;19.40
50859;BME280;36826;47.514;19.056;2023-07-16T12:20:36;99934.75;;;43.95;19.31
50859;BME280;36826;47.514;19.056;2023-07-16T12:23:02;99934.56;;;43.88;19.54
50859;BME280;36826;47.514;19.056;2023-07-16T12:25:28;99938.03;;;46.03;17.49
50859;BME280;36826;47.514;19.056;2023-07-16T12:27:54;99940.88;;;46.03;17.86
50859;BME280;36826;47.514;19.056;2023-07-16T12:30:20;99934.66;;;46.96;16.91
50859;BME280;36826;47.514;19.056;2023-07-16T12:32:45;99925.25;;;46.47;17.17
50859;BME280;36826;47.514;19.056;2023-07-16T12:35:15;99942.03;;;47.05;16.75
50859;BME280;36826;47.514;19.056;2023-07-16T12:37:41;99935.94;;;46.65;16.88
50859;BME280;36826;47.514;19.056;2023-07-16T12:40:07;99937.50;;;47.00;16.57
50859;BME280;36826;47.514;19.056;2023-07-16T12:42:35;99935.94;;;45.19;17.82
50859;BME280;36826;47.514;19.056;2023-07-16T12:45:01;99923.50;;;45.01;18.53
50859;BME280;36826;47.514;19.056;2023-07-16T12:47:27;99930.00;;;43.48;19.85